createdAt,value
2023-01-05T00:01:14.471Z,79.63
2023-01-05T00:03:42.896Z,80.75
2023-01-05T00:06:13.707Z,79.41
2023-01-05T00:08:43.062Z,79.74
2023-01-05T00:11:30.876Z,81.57
2023-01-05T00:14:16.868Z,79.55
2023-01-05T00:17:03.802Z,80.31
2023-01-05T00:19:49.829Z,80.45
2023-01-05T00:22:33.761Z,80.10
2023-01-05T00:25:11.228Z,80.98
2023-01-05T00:27:41.533Z,81.59
2023-01-05T00:30:11.149Z,81.72
2023-01-05T00:32:42.513Z,80.74
2023-01-05T00:35:12.014Z,80.41
2023-01-05T00:37:40.648Z,80.34
2023-01-05T00:40:11.137Z,80.91
2023-01-05T00:42:39.468Z,81.86
2023-01-05T00:45:09.720Z,80.04
2023-01-05T00:47:38.016Z,80.33
2023-01-05T00:50:09.813Z,82.37
2023-01-05T00:52:38.217Z,83.08
2023-01-05T00:55:07.195Z,82.54
2023-01-05T00:57:35.648Z,80.64
2023-01-05T01:00:04.541Z,80.77
2023-01-05T01:02:36.039Z,80.79
2023-01-05T01:05:08.138Z,81.76
2023-01-05T01:07:36.209Z,82.18
2023-01-05T01:10:07.212Z,81.90
2023-01-05T01:12:35.374Z,80.14
2023-01-05T01:15:03.513Z,81.38
2023-01-05T01:17:32.846Z,82.03
2023-01-05T01:20:00.947Z,81.26
2023-01-05T01:22:30.592Z,81.79
2023-01-05T01:24:58.669Z,81.80
2023-01-05T01:27:27.303Z,83.44
2023-01-05T01:29:55.482Z,80.91
2023-01-05T01:32:24.533Z,81.62
2023-01-05T01:34:52.766Z,82.37
2023-01-05T01:37:20.947Z,82.65
2023-01-05T01:39:54.893Z,81.87
2023-01-05T01:42:23.584Z,82.72
2023-01-05T01:44:58.920Z,82.71
2023-01-05T01:47:41.218Z,82.76
2023-01-05T01:50:16.455Z,83.25
2023-01-05T01:52:46.774Z,82.69
2023-01-05T01:55:16.935Z,82.94
2023-01-05T01:57:46.805Z,82.75
2023-01-05T02:00:15.828Z,84.50
2023-01-05T02:02:49.380Z,84.51
2023-01-05T02:05:23.817Z,83.62
2023-01-05T02:07:52.000Z,84.01
2023-01-05T02:10:29.283Z,83.44
2023-01-05T02:13:08.716Z,82.54
2023-01-05T02:15:45.807Z,82.98
2023-01-05T02:18:26.774Z,80.88
2023-01-05T02:21:14.919Z,80.81
2023-01-05T02:24:35.263Z,80.35
2023-01-05T02:27:42.751Z,79.41
2023-01-05T02:30:44.862Z,78.19
2023-01-05T02:33:26.888Z,79.66
2023-01-05T02:36:04.202Z,80.87
2023-01-05T02:38:39.908Z,80.52
2023-01-05T02:41:14.365Z,81.39
2023-01-05T02:43:45.532Z,81.62
2023-01-05T02:46:13.794Z,78.78
2023-01-05T02:48:45.218Z,79.43
2023-01-05T02:51:17.467Z,79.94
2023-01-05T02:53:50.928Z,80.06
2023-01-05T02:56:26.251Z,79.87
2023-01-05T02:59:00.924Z,80.43
2023-01-05T03:01:34.433Z,82.22
2023-01-05T03:04:13.598Z,82.04
2023-01-05T03:06:48.832Z,84.71
2023-01-05T03:09:26.046Z,84.38
2023-01-05T03:12:20.440Z,84.46
2023-01-05T03:14:53.800Z,83.86
2023-01-05T03:17:28.942Z,84.69
2023-01-05T03:19:59.996Z,83.02
2023-01-05T03:22:49.238Z,81.56
2023-01-05T03:25:37.356Z,81.29
2023-01-05T03:28:28.475Z,81.28
2023-01-05T03:31:19.567Z,80.47
2023-01-05T03:34:15.835Z,81.22
2023-01-05T03:36:57.467Z,79.64
2023-01-05T03:39:27.587Z,78.46
2023-01-05T03:41:58.622Z,78.86
2023-01-05T03:44:27.818Z,78.83
2023-01-05T03:46:56.180Z,78.56
2023-01-05T03:49:24.339Z,78.42
2023-01-05T03:51:54.043Z,80.23
2023-01-05T03:54:22.741Z,80.35
2023-01-05T03:56:50.944Z,81.71
2023-01-05T03:59:19.481Z,79.92
2023-01-05T04:01:49.893Z,81.16
2023-01-05T04:04:18.578Z,81.51
2023-01-05T04:06:47.319Z,81.60
2023-01-05T04:09:18.300Z,82.88
2023-01-05T04:11:47.219Z,83.00
2023-01-05T04:14:15.447Z,81.60
2023-01-05T04:16:43.728Z,82.78
2023-01-05T04:19:20.118Z,82.46
2023-01-05T04:21:52.028Z,81.49
2023-01-05T04:24:23.271Z,82.39
2023-01-05T04:26:51.364Z,84.08
2023-01-05T04:29:22.226Z,84.30
2023-01-05T04:31:51.812Z,82.44
2023-01-05T04:34:21.095Z,82.08
2023-01-05T04:36:51.344Z,82.28
2023-01-05T04:39:23.722Z,81.33
2023-01-05T04:41:52.049Z,81.00
2023-01-05T04:44:21.973Z,81.04
2023-01-05T04:46:51.379Z,83.36
2023-01-05T04:49:20.604Z,84.00
2023-01-05T04:51:51.321Z,83.41
2023-01-05T04:54:24.045Z,83.98
2023-01-05T04:56:52.844Z,85.17
2023-01-05T04:59:21.133Z,83.39
2023-01-05T05:01:50.352Z,85.81
2023-01-05T05:04:18.620Z,86.24
2023-01-05T05:06:50.324Z,88.70
2023-01-05T05:09:20.304Z,89.23
2023-01-05T05:11:51.129Z,90.10
2023-01-05T05:14:23.178Z,91.09
2023-01-05T05:16:51.361Z,92.43
2023-01-05T05:19:19.421Z,93.79
2023-01-05T05:21:47.816Z,94.00
2023-01-05T05:24:16.371Z,94.40
2023-01-05T05:26:46.546Z,95.20
2023-01-05T05:29:16.264Z,95.07
2023-01-05T05:31:44.474Z,95.23
2023-01-05T05:34:12.627Z,94.04
2023-01-05T05:36:40.696Z,94.36
2023-01-05T05:39:08.858Z,93.62
2023-01-05T05:41:37.017Z,92.79
2023-01-05T05:44:05.190Z,94.08
2023-01-05T05:46:34.640Z,93.31
2023-01-05T05:49:02.809Z,92.39
2023-01-05T05:51:31.823Z,92.06
2023-01-05T05:53:59.880Z,92.55
2023-01-05T05:56:28.031Z,92.88
2023-01-05T05:59:01.089Z,92.87
2023-01-05T06:01:30.143Z,94.45
2023-01-05T06:04:00.001Z,95.30
2023-01-05T06:06:31.742Z,95.21
2023-01-05T06:08:59.859Z,95.18
2023-01-05T06:11:27.915Z,94.39
2023-01-05T06:13:56.220Z,94.85
2023-01-05T06:16:24.431Z,94.67
2023-01-05T06:18:52.544Z,95.56
2023-01-05T06:21:22.458Z,95.47
2023-01-05T06:23:50.750Z,96.00
2023-01-05T06:26:18.824Z,94.91
2023-01-05T06:28:46.937Z,95.76
2023-01-05T06:31:15.048Z,95.14
2023-01-05T06:33:43.253Z,95.37
2023-01-05T06:36:11.321Z,94.09
2023-01-05T06:38:40.827Z,93.92
2023-01-05T06:41:08.904Z,93.32
2023-01-05T06:43:36.947Z,96.19
2023-01-05T06:46:05.461Z,89.30
2023-01-05T06:48:33.608Z,96.80
2023-01-05T06:51:01.785Z,96.88
2023-01-05T06:53:29.880Z,96.01
2023-01-05T06:55:59.412Z,96.34
2023-01-05T06:58:27.520Z,95.86
2023-01-05T07:00:55.966Z,93.37
2023-01-05T07:03:24.867Z,94.61
2023-01-05T07:05:53.529Z,93.91
2023-01-05T07:08:21.602Z,95.95
2023-01-05T07:10:49.787Z,94.89
2023-01-05T07:13:19.248Z,97.35
2023-01-05T07:15:47.402Z,97.81
2023-01-05T07:18:15.623Z,100.00
2023-01-05T07:20:43.855Z,100.00
2023-01-05T07:23:11.990Z,100.00
2023-01-05T07:25:40.224Z,100.00
2023-01-05T07:28:08.341Z,100.00
2023-01-05T07:30:37.807Z,100.00
2023-01-05T07:33:05.888Z,100.00
2023-01-05T07:35:34.266Z,100.00
2023-01-05T07:38:02.558Z,100.00
2023-01-05T07:40:30.642Z,99.54
2023-01-05T07:42:58.755Z,99.72
2023-01-05T07:45:27.010Z,100.00
2023-01-05T07:47:56.494Z,100.00
2023-01-05T07:50:24.881Z,100.00
2023-01-05T07:52:53.216Z,100.00
2023-01-05T07:55:21.423Z,100.00
2023-01-05T07:57:49.500Z,99.70
2023-01-05T08:00:17.938Z,100.00
2023-01-05T08:02:46.234Z,100.00
2023-01-05T08:05:15.993Z,99.78
2023-01-05T08:07:44.094Z,100.00
2023-01-05T08:10:30.119Z,100.00
2023-01-05T08:13:20.643Z,100.00
2023-01-05T08:15:51.766Z,99.57
2023-01-05T08:18:20.244Z,99.56
2023-01-05T08:20:54.509Z,100.00
2023-01-05T08:23:25.614Z,100.00
2023-01-05T08:25:55.214Z,100.00
2023-01-05T08:28:23.467Z,100.00
2023-01-05T08:30:51.861Z,100.00
2023-01-05T08:33:20.013Z,100.00
2023-01-05T08:35:49.059Z,100.00
2023-01-05T08:38:26.949Z,100.00
2023-01-05T08:40:58.964Z,100.00
2023-01-05T08:43:27.222Z,100.00
2023-01-05T08:45:55.345Z,99.55
2023-01-05T08:48:23.719Z,99.39
2023-01-05T08:50:51.865Z,100.00
2023-01-05T08:53:21.335Z,100.00
2023-01-05T08:55:49.915Z,100.00
2023-01-05T08:58:18.014Z,100.00
2023-01-05T09:00:46.425Z,99.93
2023-01-05T09:03:14.729Z,99.25
2023-01-05T09:05:43.090Z,98.92
2023-01-05T09:08:11.215Z,99.15
2023-01-05T09:10:40.750Z,98.90
2023-01-05T09:13:10.024Z,98.62
2023-01-05T09:15:38.183Z,99.96
2023-01-05T09:18:06.229Z,99.92
2023-01-05T09:20:39.555Z,99.79
2023-01-05T09:23:08.255Z,99.79
2023-01-05T09:25:36.619Z,100.00
2023-01-05T09:28:06.373Z,100.00
2023-01-05T09:30:41.853Z,99.52
2023-01-05T09:33:12.713Z,99.25
2023-01-05T09:35:40.964Z,99.21
2023-01-05T09:38:09.134Z,99.43
2023-01-05T09:40:42.393Z,99.61
2023-01-05T09:43:19.549Z,98.61
2023-01-05T09:45:49.870Z,98.67
2023-01-05T09:48:20.452Z,98.02
2023-01-05T09:50:52.392Z,98.46
2023-01-05T09:53:29.562Z,99.96
2023-01-05T09:55:59.539Z,99.56
2023-01-05T09:58:35.767Z,98.94
2023-01-05T10:01:10.949Z,98.65
2023-01-05T10:06:35.475Z,98.11
2023-01-05T10:09:06.903Z,97.91
2023-01-05T10:11:58.497Z,97.58
2023-01-05T10:14:33.880Z,95.96
2023-01-05T10:17:38.988Z,96.83
2023-01-05T10:19:56.421Z,96.07
2023-01-05T10:22:39.099Z,96.92
2023-01-05T10:25:18.680Z,96.67
2023-01-05T10:27:56.909Z,95.38
2023-01-05T10:30:38.915Z,94.82
2023-01-05T10:33:39.657Z,94.46
2023-01-05T10:36:28.118Z,95.28
2023-01-05T10:39:16.610Z,93.80
2023-01-05T10:41:55.131Z,93.27
2023-01-05T10:44:42.232Z,91.45
2023-01-05T10:47:13.363Z,89.95
2023-01-05T10:49:43.794Z,90.04
2023-01-05T10:52:15.206Z,91.77
2023-01-05T10:54:47.419Z,91.44
2023-01-05T10:57:37.924Z,90.79
2023-01-05T11:00:11.226Z,91.46
2023-01-05T11:02:43.160Z,90.25
2023-01-05T11:05:32.219Z,89.31
2023-01-05T11:08:03.279Z,90.62
2023-01-05T11:10:34.072Z,89.52
2023-01-05T11:13:07.601Z,89.26
2023-01-05T11:15:43.258Z,89.94
2023-01-05T11:18:25.934Z,90.53
2023-01-05T11:21:11.262Z,88.09
2023-01-05T11:23:41.768Z,89.44
2023-01-05T11:26:22.604Z,88.65
2023-01-05T11:29:02.896Z,87.77
2023-01-05T11:31:36.943Z,88.55
2023-01-05T11:34:14.829Z,88.37
2023-01-05T11:36:43.819Z,88.61
2023-01-05T11:39:24.189Z,89.18
2023-01-05T11:41:52.664Z,88.79
2023-01-05T11:44:23.913Z,88.28
2023-01-05T11:46:52.194Z,86.66
2023-01-05T11:49:21.739Z,87.49
2023-01-05T11:51:49.863Z,87.42
2023-01-05T11:54:34.125Z,88.25
2023-01-05T11:57:16.183Z,87.25
2023-01-05T11:59:46.208Z,87.63
2023-01-05T12:02:44.547Z,86.87
2023-01-05T12:05:25.293Z,87.71
2023-01-05T12:07:59.639Z,87.88
2023-01-05T12:10:43.270Z,89.36
2023-01-05T12:13:29.525Z,88.64
2023-01-05T12:16:12.853Z,87.79
2023-01-05T12:19:07.658Z,87.04
2023-01-05T12:21:40.140Z,87.26
2023-01-05T12:24:31.693Z,85.92
2023-01-05T12:27:14.266Z,85.75
2023-01-05T12:36:34.497Z,84.49
2023-01-05T12:39:20.029Z,86.31
2023-01-05T12:42:05.469Z,86.07
2023-01-05T12:45:00.341Z,88.26
2023-01-05T12:47:52.586Z,89.67
2023-01-05T12:50:27.270Z,90.53
2023-01-05T12:53:03.664Z,92.63
2023-01-05T12:55:39.205Z,93.46
2023-01-05T12:58:14.785Z,93.21
2023-01-05T13:00:46.445Z,93.47
2023-01-05T13:03:25.368Z,94.78
2023-01-05T13:06:01.558Z,94.85
2023-01-05T13:08:38.531Z,94.51
2023-01-05T13:11:17.499Z,94.80
2023-01-05T13:13:49.937Z,94.73
2023-01-05T13:16:22.717Z,94.61
2023-01-05T13:18:56.761Z,94.69
2023-01-05T13:21:27.497Z,93.96
2023-01-05T13:23:58.424Z,93.91
2023-01-05T13:26:30.335Z,93.07
2023-01-05T13:29:02.768Z,93.98
2023-01-05T13:31:54.077Z,92.13
2023-01-05T13:34:42.755Z,90.71
2023-01-05T13:37:33.173Z,93.26
2023-01-05T13:40:18.462Z,100.00
2023-01-05T13:43:16.504Z,100.00
2023-01-05T13:46:14.747Z,100.00
2023-01-05T13:49:08.846Z,100.00
2023-01-05T13:52:00.218Z,100.00
2023-01-05T13:54:49.408Z,100.00
2023-01-05T13:57:23.133Z,100.00
2023-01-05T14:00:06.460Z,95.75
2023-01-05T14:02:42.270Z,100.00
2023-01-05T14:05:18.158Z,100.00
2023-01-05T14:07:46.496Z,100.00
2023-01-05T14:10:24.854Z,100.00
2023-01-05T14:12:55.258Z,100.00
2023-01-05T14:15:38.767Z,99.75
2023-01-05T14:18:08.344Z,98.83
2023-01-05T14:20:44.811Z,97.75
2023-01-05T14:23:50.316Z,96.78
2023-01-05T14:26:18.720Z,97.79
2023-01-05T14:28:49.294Z,96.27
2023-01-05T14:31:51.742Z,96.54
2023-01-05T14:34:24.398Z,95.16
2023-01-05T14:37:07.530Z,94.58
2023-01-05T14:39:45.189Z,93.69
2023-01-05T14:42:28.772Z,93.44
2023-01-05T14:45:01.445Z,93.09
2023-01-05T14:47:41.415Z,93.73
2023-01-05T14:50:29.824Z,93.18
2023-01-05T14:53:01.181Z,93.15
2023-01-05T14:55:40.092Z,93.05
2023-01-05T14:58:14.320Z,92.44
2023-01-05T15:00:49.033Z,92.35
2023-01-05T15:03:25.325Z,93.07
2023-01-05T15:05:59.705Z,92.71
2023-01-05T15:08:45.314Z,92.53
2023-01-05T15:11:39.148Z,92.72
2023-01-05T15:14:38.745Z,93.61
2023-01-05T15:17:45.449Z,92.59
2023-01-05T15:20:45.914Z,92.57
2023-01-05T15:23:36.272Z,92.24
2023-01-05T15:26:43.798Z,91.72
2023-01-05T15:29:36.452Z,92.16
2023-01-05T15:32:11.475Z,93.21
2023-01-05T15:34:45.893Z,93.64
2023-01-05T15:37:19.823Z,93.99
2023-01-05T15:39:49.918Z,93.68
2023-01-05T15:42:23.676Z,93.93
2023-01-05T15:44:54.683Z,93.34
2023-01-05T15:47:26.650Z,94.88
2023-01-05T15:49:58.151Z,94.69
2023-01-05T15:52:34.630Z,94.23
2023-01-05T15:55:05.488Z,93.72
2023-01-05T15:57:33.703Z,93.86
2023-01-05T16:00:01.850Z,92.93
2023-01-05T16:02:39.928Z,93.16
2023-01-05T16:05:17.467Z,92.75
2023-01-05T16:07:52.925Z,92.65
2023-01-05T16:10:23.963Z,92.57
2023-01-05T16:12:56.571Z,91.03
2023-01-05T16:15:26.236Z,91.29
2023-01-05T16:17:58.111Z,90.78
2023-01-05T16:20:27.471Z,89.80
2023-01-05T16:23:08.318Z,88.84
2023-01-05T16:25:41.480Z,89.56
2023-01-05T16:28:17.398Z,88.51
2023-01-05T16:30:47.252Z,88.27
2023-01-05T16:33:27.363Z,88.56
2023-01-05T16:36:08.679Z,87.85
2023-01-05T16:38:38.195Z,87.97
2023-01-05T16:41:21.852Z,86.59
2023-01-05T16:43:58.094Z,87.45
2023-01-05T16:46:39.119Z,86.77
2023-01-05T16:49:41.156Z,87.73
2023-01-05T16:52:24.998Z,89.20
2023-01-05T16:55:27.470Z,91.46
2023-01-05T16:57:56.737Z,93.17
2023-01-05T17:00:37.509Z,93.65
2023-01-05T17:03:29.121Z,93.13
2023-01-05T17:05:58.615Z,94.01
2023-01-05T17:08:31.866Z,93.78
2023-01-05T17:11:03.152Z,93.71
2023-01-05T17:13:38.874Z,92.90
2023-01-05T17:16:07.959Z,91.91
2023-01-05T17:18:36.350Z,92.55
2023-01-05T17:21:05.963Z,91.67
2023-01-05T17:23:36.641Z,91.29
2023-01-05T17:26:09.635Z,90.88
2023-01-05T17:28:39.263Z,93.20
2023-01-05T17:31:08.119Z,91.62
2023-01-05T17:33:36.364Z,92.92
2023-01-05T17:36:04.900Z,91.98
2023-01-05T17:38:33.085Z,91.15
2023-01-05T17:41:01.227Z,90.50
2023-01-05T17:43:30.759Z,90.49
2023-01-05T17:45:59.275Z,89.86
2023-01-05T17:48:27.386Z,88.56
2023-01-05T17:50:55.482Z,89.03
2023-01-05T17:53:23.521Z,88.63
2023-01-05T17:55:51.606Z,88.55
2023-01-05T17:58:19.711Z,88.99
2023-01-05T18:00:49.852Z,88.35
2023-01-05T18:03:22.423Z,88.69
2023-01-05T18:05:52.637Z,88.54
2023-01-05T18:08:22.135Z,88.43
2023-01-05T18:10:50.432Z,88.16
2023-01-05T18:13:21.482Z,88.30
2023-01-05T18:15:55.439Z,88.64
2023-01-05T18:18:24.831Z,88.26
2023-01-05T18:20:53.465Z,88.30
2023-01-05T18:23:24.457Z,87.54
2023-01-05T18:25:52.885Z,87.24
2023-01-05T18:28:21.018Z,87.45
2023-01-05T18:30:49.142Z,87.03
2023-01-05T18:33:18.717Z,86.03
2023-01-05T18:35:50.489Z,86.23
2023-01-05T18:38:18.807Z,86.85
2023-01-05T18:40:49.171Z,87.18
2023-01-05T18:43:17.376Z,87.26
2023-01-05T18:45:45.679Z,86.44
2023-01-05T18:48:13.866Z,86.17
2023-01-05T18:50:49.926Z,86.31
2023-01-05T18:53:18.496Z,86.51
2023-01-05T18:55:47.088Z,87.66
2023-01-05T18:58:16.175Z,86.92
2023-01-05T19:00:45.892Z,88.57
2023-01-05T19:03:14.051Z,87.87
2023-01-05T19:05:45.644Z,87.12
2023-01-05T19:08:14.900Z,88.95
2023-01-05T19:10:43.313Z,88.05
2023-01-05T19:13:11.463Z,88.98
2023-01-05T19:15:39.752Z,88.82
2023-01-05T19:18:07.916Z,89.53
2023-01-05T19:20:36.164Z,89.14
2023-01-05T19:23:05.729Z,89.08
2023-01-05T19:25:33.861Z,88.86
2023-01-05T19:28:02.556Z,89.66
2023-01-05T19:30:31.431Z,90.00
2023-01-05T19:33:01.163Z,90.17
2023-01-05T19:35:31.264Z,90.15
2023-01-05T19:38:00.726Z,90.19
2023-01-05T19:40:30.385Z,90.02
2023-01-05T19:43:08.749Z,89.48
2023-01-05T19:45:40.780Z,89.54
2023-01-05T21:55:14.312Z,82.60
2023-01-05T21:57:42.351Z,82.56
2023-01-05T22:00:11.832Z,81.72
2023-01-05T22:02:40.003Z,81.85
2023-01-05T22:05:08.973Z,81.67
2023-01-05T22:07:37.047Z,83.11
2023-01-05T22:10:07.655Z,82.54
2023-01-05T22:12:35.796Z,83.40
2023-01-05T22:15:04.261Z,83.17
